createdAt,value
2022-10-15T00:01:35.898Z,98249.28
2022-10-15T00:04:03.227Z,98259.66
2022-10-15T00:06:31.828Z,98247.44
2022-10-15T00:08:59.939Z,98249.63
2022-10-15T00:11:29.018Z,98244.34
2022-10-15T00:13:58.214Z,98245.00
2022-10-15T00:16:27.436Z,98243.97
2022-10-15T00:18:59.281Z,98238.69
2022-10-15T00:21:26.698Z,98245.78
2022-10-15T00:23:54.394Z,98238.69
2022-10-15T00:26:26.522Z,98237.06
2022-10-15T00:28:55.470Z,98228.03
2022-10-15T00:31:24.734Z,98237.16
2022-10-15T00:33:55.616Z,98243.53
2022-10-15T00:36:25.417Z,98241.09
2022-10-15T00:38:54.113Z,98242.72
2022-10-15T00:41:29.967Z,98231.13
2022-10-15T00:44:01.910Z,98235.44
2022-10-15T00:46:40.579Z,98245.78
2022-10-15T00:49:28.721Z,98241.34
2022-10-15T00:52:02.857Z,98237.25
2022-10-15T00:54:33.635Z,98231.13
2022-10-15T00:57:00.982Z,98223.41
2022-10-15T00:59:30.237Z,98228.63
2022-10-15T01:01:57.163Z,98231.88
2022-10-15T01:04:26.569Z,98224.78
2022-10-15T01:06:55.023Z,98230.88
2022-10-15T01:09:22.672Z,98229.88
2022-10-15T01:11:55.266Z,98219.31
2022-10-15T01:14:49.458Z,98222.94
2022-10-15T01:17:47.398Z,98219.09
2022-10-15T01:20:45.202Z,98216.44
2022-10-15T01:23:43.717Z,98219.75
2022-10-15T01:26:41.941Z,98214.63
2022-10-15T01:29:32.122Z,98207.91
2022-10-15T01:32:26.275Z,98212.06
2022-10-15T01:35:08.712Z,98210.88
2022-10-15T01:37:57.924Z,98204.16
2022-10-15T01:40:34.714Z,98203.81
2022-10-15T01:43:13.414Z,98197.66
2022-10-15T01:45:49.876Z,98190.34
2022-10-15T01:48:18.021Z,98195.97
2022-10-15T01:50:48.717Z,98192.72
2022-10-15T01:53:26.821Z,98196.56
2022-10-15T01:55:58.411Z,98188.44
2022-10-15T01:58:27.011Z,98182.97
2022-10-15T02:00:55.475Z,98174.03
2022-10-15T02:03:24.486Z,98171.22
2022-10-15T02:06:01.710Z,98171.22
2022-10-15T02:09:01.290Z,98172.66
2022-10-15T02:11:30.486Z,98176.09
2022-10-15T02:14:05.095Z,98168.34
2022-10-15T02:16:42.556Z,98170.19
2022-10-15T02:19:19.274Z,98167.91
2022-10-15T02:22:13.783Z,98169.00
2022-10-15T02:24:55.408Z,98166.19
2022-10-15T02:27:25.658Z,98179.75
2022-10-15T02:29:55.466Z,98173.28
2022-10-15T02:32:26.295Z,98171.06
2022-10-15T02:34:55.788Z,98173.91
2022-10-15T02:37:26.288Z,98164.16
2022-10-15T02:39:53.323Z,98164.75
2022-10-15T02:42:20.943Z,98168.59
2022-10-15T02:44:49.996Z,98157.59
2022-10-15T02:47:18.438Z,98158.25
2022-10-15T02:49:51.497Z,98160.25
2022-10-15T02:52:22.352Z,98167.16
2022-10-15T02:54:52.988Z,98159.44
2022-10-15T02:57:23.175Z,98151.28
2022-10-15T02:59:53.190Z,98158.25
2022-10-15T03:02:21.095Z,98155.59
2022-10-15T03:04:50.592Z,98168.81
2022-10-15T03:07:21.012Z,98162.25
2022-10-15T03:09:56.348Z,98170.00
2022-10-15T03:12:24.289Z,98166.34
2022-10-15T03:14:55.537Z,98166.97
2022-10-15T03:17:26.255Z,98158.44
2022-10-15T03:19:58.984Z,98157.59
2022-10-15T03:22:29.124Z,98145.03
2022-10-15T03:24:59.602Z,98140.72
2022-10-15T03:27:30.769Z,98141.19
2022-10-15T03:30:03.022Z,98140.16
2022-10-15T03:32:34.231Z,98137.72
2022-10-15T03:35:07.262Z,98141.38
2022-10-15T03:37:34.354Z,98144.00
2022-10-15T03:40:08.283Z,98131.81
2022-10-15T03:42:41.798Z,98145.81
2022-10-15T03:45:13.358Z,98151.28
2022-10-15T03:47:42.208Z,98146.84
2022-10-15T03:50:11.201Z,98138.06
2022-10-15T03:52:40.332Z,98144.81
2022-10-15T03:55:10.168Z,98159.03
2022-10-15T03:57:38.934Z,98139.91
2022-10-15T04:00:07.870Z,98142.38
2022-10-15T04:02:38.470Z,98149.91
2022-10-15T04:05:06.232Z,98151.53
2022-10-15T04:07:36.643Z,98157.84
2022-10-15T04:10:07.915Z,98146.00
2022-10-15T04:12:39.445Z,98151.28
2022-10-15T04:15:09.309Z,98150.50
2022-10-15T04:17:39.527Z,98152.13
2022-10-15T04:20:11.556Z,98160.88
2022-10-15T04:22:40.290Z,98168.81
2022-10-15T04:25:10.212Z,98166.97
2022-10-15T04:27:41.332Z,98169.44
2022-10-15T04:30:10.551Z,98165.97
2022-10-15T04:32:41.825Z,98160.50
2022-10-15T04:35:13.107Z,98162.34
2022-10-15T04:37:43.511Z,98168.81
2022-10-15T04:40:15.344Z,98174.09
2022-10-15T04:42:46.561Z,98172.44
2022-10-15T04:45:16.308Z,98173.28
2022-10-15T04:47:45.026Z,98178.00
2022-10-15T04:50:13.811Z,98174.53
2022-10-15T04:52:43.258Z,98180.84
2022-10-15T04:55:14.563Z,98171.25
2022-10-15T04:57:47.357Z,98178.81
2022-10-15T05:00:19.089Z,98178.63
2022-10-15T05:02:50.309Z,98171.91
2022-10-15T05:05:19.888Z,98171.06
2022-10-15T05:07:52.296Z,98162.94
2022-10-15T05:10:22.252Z,98163.97
2022-10-15T05:12:54.203Z,98159.88
2022-10-15T05:15:27.805Z,98150.94
2022-10-15T05:17:55.582Z,98152.97
2022-10-15T05:20:25.635Z,98156.22
2022-10-15T05:22:56.433Z,98159.88
2022-10-15T05:25:25.589Z,98157.84
2022-10-15T05:27:57.131Z,98163.78
2022-10-15T05:30:27.033Z,98164.16
2022-10-15T05:33:01.440Z,98170.44
2022-10-15T05:35:28.765Z,98179.41
2022-10-15T05:37:56.818Z,98173.28
2022-10-15T05:40:27.614Z,98177.13
2022-10-15T05:42:56.630Z,98188.69
2022-10-15T05:45:25.467Z,98196.44
2022-10-15T05:47:58.689Z,98201.75
2022-10-15T05:50:28.038Z,98200.91
2022-10-15T05:52:56.366Z,98200.34
2022-10-15T05:55:23.948Z,98205.44
2022-10-15T05:57:51.960Z,98210.72
2022-10-15T06:00:20.592Z,98209.09
2022-10-15T06:02:50.896Z,98209.09
2022-10-15T06:05:18.460Z,98209.53
2022-10-15T06:07:46.015Z,98216.84
2022-10-15T06:10:13.949Z,98208.72
2022-10-15T06:12:44.199Z,98211.16
2022-10-15T06:15:17.720Z,98212.34
2022-10-15T06:17:47.705Z,98220.94
2022-10-15T06:20:17.121Z,98216.91
2022-10-15T06:22:46.895Z,98206.88
2022-10-15T06:25:14.582Z,98209.34
2022-10-15T06:27:52.282Z,98199.59
2022-10-15T06:30:22.356Z,98204.69
2022-10-15T06:32:51.797Z,98208.53
2022-10-15T06:35:23.232Z,98212.00
2022-10-15T06:37:50.870Z,98214.28
2022-10-15T06:40:18.247Z,98210.41
2022-10-15T06:42:45.554Z,98210.03
2022-10-15T06:45:12.493Z,98214.31
2022-10-15T06:47:42.898Z,98216.78
2022-10-15T06:50:10.383Z,98230.00
2022-10-15T06:52:38.350Z,98235.19
2022-10-15T06:55:06.315Z,98246.53
2022-10-15T06:57:33.563Z,98254.81
2022-10-15T07:00:01.053Z,98259.09
2022-10-15T07:02:27.866Z,98270.03
2022-10-15T07:04:55.129Z,98268.13
2022-10-15T07:07:21.991Z,98271.78
2022-10-15T07:09:53.274Z,98266.16
2022-10-15T07:12:25.931Z,98273.06
2022-10-15T07:14:53.235Z,98269.41
2022-10-15T07:17:20.900Z,98275.13
2022-10-15T07:19:47.997Z,98285.44
2022-10-15T07:22:15.155Z,98281.13
2022-10-15T07:24:42.997Z,98283.44
2022-10-15T07:27:18.773Z,98290.63
2022-10-15T07:29:48.974Z,98281.06
2022-10-15T07:32:16.597Z,98287.97
2022-10-15T07:34:44.775Z,98292.69
2022-10-15T07:37:11.974Z,98289.25
2022-10-15T07:39:40.908Z,98295.16
2022-10-15T07:42:09.691Z,98301.28
2022-10-15T07:44:36.583Z,98307.09
2022-10-15T07:47:05.093Z,98303.75
2022-10-15T07:49:32.573Z,98303.34
2022-10-15T07:52:00.237Z,98307.44
2022-10-15T07:54:27.792Z,98318.09
2022-10-15T07:56:54.764Z,98317.53
2022-10-15T07:59:24.748Z,98317.94
2022-10-15T08:01:52.714Z,98313.31
2022-10-15T08:04:20.915Z,98316.75
2022-10-15T08:06:49.966Z,98309.47
2022-10-15T08:09:17.925Z,98306.41
2022-10-15T08:11:45.086Z,98296.22
2022-10-15T08:14:15.012Z,98301.34
2022-10-15T08:16:41.849Z,98298.91
2022-10-15T08:19:09.201Z,98300.94
2022-10-15T08:21:36.416Z,98304.00
2022-10-15T08:24:03.764Z,98320.06
2022-10-15T08:26:30.711Z,98329.81
2022-10-15T08:28:58.541Z,98340.28
2022-10-15T08:31:25.473Z,98339.44
2022-10-15T08:33:53.084Z,98341.25
2022-10-15T08:36:20.641Z,98343.91
2022-10-15T08:38:48.093Z,98343.63
2022-10-15T08:41:41.469Z,98354.88
2022-10-15T08:44:16.666Z,98361.06
2022-10-15T08:46:47.749Z,98353.28
2022-10-15T08:49:24.391Z,98347.97
2022-10-15T08:51:56.006Z,98350.09
2022-10-15T08:54:23.472Z,98343.78
2022-10-15T08:56:55.608Z,98348.25
2022-10-15T08:59:34.474Z,98354.63
2022-10-15T09:02:20.020Z,98357.56
2022-10-15T09:05:20.805Z,98353.56
2022-10-15T09:08:00.638Z,98361.69
2022-10-15T09:10:44.676Z,98364.16
2022-10-15T09:13:19.552Z,98362.63
2022-10-15T09:16:03.643Z,98365.41
2022-10-15T09:18:33.016Z,98356.47
2022-10-15T09:21:00.866Z,98362.28
2022-10-15T09:23:35.254Z,98370.03
2022-10-15T09:26:33.822Z,98371.47
2022-10-15T09:29:23.438Z,98368.78
2022-10-15T09:32:20.870Z,98375.22
2022-10-15T09:34:56.846Z,98375.03
2022-10-15T09:37:51.679Z,98375.34
2022-10-15T09:40:29.107Z,98373.81
2022-10-15T09:42:58.568Z,98373.03
2022-10-15T09:45:29.517Z,98378.56
2022-10-15T09:48:00.612Z,98373.47
2022-10-15T09:50:40.749Z,98378.09
2022-10-15T09:53:29.962Z,98373.41
2022-10-15T09:56:26.434Z,98375.94
2022-10-15T09:58:58.473Z,98386.09
2022-10-15T10:01:33.147Z,98377.69
2022-10-15T10:04:33.211Z,98372.88
2022-10-15T10:07:07.724Z,98377.50
2022-10-15T10:09:56.079Z,98367.94
2022-10-15T10:12:29.780Z,98369.78
2022-10-15T10:15:09.863Z,98372.50
2022-10-15T10:17:37.045Z,98375.19
2022-10-15T10:20:17.295Z,98371.97
2022-10-15T10:22:51.576Z,98377.75
2022-10-15T10:25:44.966Z,98372.06
2022-10-15T10:28:19.818Z,98376.59
2022-10-15T10:31:03.997Z,98381.50
2022-10-15T10:33:48.909Z,98381.06
2022-10-15T10:36:35.863Z,98379.53
2022-10-15T10:39:25.310Z,98380.19
2022-10-15T10:42:24.082Z,98383.03
2022-10-15T10:44:51.789Z,98374.69
2022-10-15T10:47:24.636Z,98377.19
2022-10-15T10:49:54.965Z,98382.09
2022-10-15T10:52:29.792Z,98382.69
2022-10-15T10:55:25.254Z,98381.28
2022-10-15T10:58:00.241Z,98374.53
2022-10-15T11:00:43.161Z,98377.59
2022-10-15T11:03:30.962Z,98385.78
2022-10-15T11:06:33.203Z,98377.59
2022-10-15T11:09:00.575Z,98369.63
2022-10-15T11:12:20.555Z,98373.50
2022-10-15T11:15:29.783Z,98374.13
2022-10-15T11:18:27.868Z,98371.47
2022-10-15T11:21:56.500Z,98369.63
2022-10-15T11:24:42.662Z,98365.75
2022-10-15T11:27:38.867Z,98362.06
2022-10-15T11:30:58.673Z,98356.53
2022-10-15T11:34:13.181Z,98356.75
2022-10-15T11:36:43.371Z,98350.63
2022-10-15T11:39:43.260Z,98355.53
2022-10-15T11:42:39.480Z,98357.16
2022-10-15T11:45:44.000Z,98354.72
2022-10-15T11:48:19.439Z,98350.44
2022-10-15T11:51:11.315Z,98352.25
2022-10-15T11:53:55.748Z,98344.94
2022-10-15T11:56:42.033Z,98346.97
2022-10-15T11:59:22.337Z,98338.34
2022-10-15T12:01:54.931Z,98335.53
2022-10-15T12:04:42.448Z,98344.09
2022-10-15T12:07:16.411Z,98331.41
2022-10-15T12:09:47.953Z,98340.00
2022-10-15T12:12:39.763Z,98339.63
2022-10-15T12:15:26.231Z,98333.03
2022-10-15T12:18:31.592Z,98340.22
2022-10-15T12:20:59.850Z,98343.69
2022-10-15T12:23:43.068Z,98347.97
2022-10-15T12:26:32.674Z,98338.34
2022-10-15T12:29:03.213Z,98342.47
2022-10-15T12:31:47.745Z,98341.81
2022-10-15T12:34:37.448Z,98339.19
2022-10-15T12:37:18.244Z,98338.97
2022-10-15T12:39:52.094Z,98335.50
2022-10-15T12:42:23.568Z,98337.75
2022-10-15T12:44:51.464Z,98336.72
2022-10-15T12:47:51.226Z,98336.13
2022-10-15T12:50:26.960Z,98338.75
2022-10-15T12:53:20.913Z,98331.81
2022-10-15T12:56:21.279Z,98328.97
2022-10-15T12:58:52.438Z,98326.50
2022-10-15T13:01:30.492Z,98331.00
2022-10-15T13:03:59.870Z,98330.16
2022-10-15T13:06:32.945Z,98329.38
2022-10-15T13:09:11.017Z,98320.19
2022-10-15T13:14:50.739Z,98331.81
2022-10-15T13:17:23.203Z,98325.06
2022-10-15T13:20:04.774Z,98326.09
2022-10-15T13:22:33.448Z,98322.63
2022-10-15T13:25:00.569Z,98327.31
2022-10-15T13:27:34.767Z,98319.94
2022-10-15T13:30:16.298Z,98319.78
2022-10-15T13:32:49.493Z,98331.81
2022-10-15T13:35:43.534Z,98325.69
2022-10-15T13:38:26.550Z,98319.56
2022-10-15T13:40:54.523Z,98323.03
2022-10-15T13:43:25.414Z,98317.72
2022-10-15T13:45:57.827Z,98315.66
2022-10-15T13:51:10.732Z,98308.09
2022-10-15T13:53:42.043Z,98318.72
2022-10-15T13:56:31.034Z,98314.84
2022-10-15T13:59:03.536Z,98322.00
2022-10-15T14:01:33.624Z,98314.25
2022-10-15T14:04:04.247Z,98318.50
2022-10-15T14:06:33.783Z,98319.56
2022-10-15T14:09:12.436Z,98322.63
2022-10-15T14:11:40.534Z,98315.06
2022-10-15T14:14:31.400Z,98316.28
2022-10-15T14:17:00.804Z,98316.69
2022-10-15T14:19:31.987Z,98315.88
2022-10-15T14:22:00.178Z,98321.78
2022-10-15T14:24:35.694Z,98321.97
2022-10-15T14:27:07.864Z,98325.03
2022-10-15T14:29:44.386Z,98317.09
2022-10-15T14:32:49.231Z,98322.00
2022-10-15T14:35:30.352Z,98316.69
2022-10-15T14:38:30.933Z,98312.19
2022-10-15T14:41:08.257Z,98311.59
2022-10-15T14:43:37.658Z,98312.59
2022-10-15T14:46:08.216Z,98310.53
2022-10-15T14:48:42.190Z,98303.81
2022-10-15T14:51:19.553Z,98301.38
2022-10-15T14:53:47.558Z,98308.50
2022-10-15T14:56:22.599Z,98314.84
2022-10-15T14:58:53.639Z,98315.63
2022-10-15T15:01:21.477Z,98319.13
2022-10-15T15:03:51.427Z,98307.28
2022-10-15T15:06:19.214Z,98315.88
2022-10-15T15:08:47.638Z,98309.16
2022-10-15T15:11:19.302Z,98305.84
2022-10-15T15:13:47.327Z,98299.13
2022-10-15T15:16:18.510Z,98310.13
2022-10-15T15:18:46.745Z,98309.34
2022-10-15T15:21:16.779Z,98314.25
2022-10-15T15:23:44.839Z,98308.72
2022-10-15T15:26:12.323Z,98308.91
2022-10-15T15:28:39.968Z,98301.78
2022-10-15T15:31:11.458Z,98299.72
2022-10-15T15:33:41.442Z,98294.84
2022-10-15T15:36:14.799Z,98302.81
2022-10-15T15:38:43.528Z,98304.03
2022-10-15T15:41:22.833Z,98312.19
2022-10-15T15:43:51.137Z,98311.38
2022-10-15T15:46:19.112Z,98315.25
2022-10-15T15:48:46.175Z,98316.50
2022-10-15T15:51:28.180Z,98325.50
2022-10-15T15:53:57.958Z,98323.63
2022-10-15T15:56:25.664Z,98319.56
2022-10-15T15:58:54.312Z,98325.47
2022-10-15T16:01:22.573Z,98326.06
2022-10-15T16:03:50.052Z,98325.06
2022-10-15T16:06:17.325Z,98317.09
2022-10-15T16:08:48.459Z,98318.50
2022-10-15T16:11:16.706Z,98323.22
2022-10-15T16:13:46.820Z,98328.94
2022-10-15T16:16:14.235Z,98333.44
2022-10-15T16:18:42.239Z,98334.25
2022-10-15T16:21:09.448Z,98328.91
2022-10-15T16:23:36.442Z,98329.94
2022-10-15T16:26:03.603Z,98342.59
2022-10-15T16:28:30.703Z,98331.56
2022-10-15T16:31:34.169Z,98337.47
2022-10-15T16:34:05.702Z,98352.19
2022-10-15T16:36:33.008Z,98329.72
2022-10-15T16:39:00.053Z,98341.56
2022-10-15T16:41:27.233Z,98340.75
2022-10-15T16:43:54.361Z,98341.97
2022-10-15T16:46:22.068Z,98352.19
2022-10-15T16:48:54.382Z,98348.50
2022-10-15T16:51:22.589Z,98357.50
2022-10-15T16:53:52.267Z,98364.03
2022-10-15T16:56:29.434Z,98358.69
2022-10-15T16:58:57.041Z,98364.59
2022-10-15T17:01:28.114Z,98372.34
2022-10-15T17:03:57.109Z,98372.72
2022-10-15T17:06:28.363Z,98372.50
2022-10-15T17:08:57.802Z,98375.78
2022-10-15T17:11:29.327Z,98379.03
2022-10-15T17:13:59.936Z,98390.06
2022-10-15T17:16:29.318Z,98395.38
2022-10-15T17:18:58.149Z,98393.31
2022-10-15T17:21:29.760Z,98402.97
2022-10-15T17:23:59.274Z,98407.31
2022-10-15T17:26:29.793Z,98404.69
2022-10-15T17:28:57.708Z,98403.25
2022-10-15T17:31:27.387Z,98410.59
2022-10-15T17:34:01.617Z,98413.84
2022-10-15T17:36:32.213Z,98419.81
2022-10-15T17:39:00.580Z,98419.59
2022-10-15T17:41:31.236Z,98421.84
2022-10-15T17:43:59.198Z,98424.13
2022-10-15T17:46:31.953Z,98430.00
2022-10-15T17:48:59.199Z,98426.38
2022-10-15T17:51:29.510Z,98430.03
2022-10-15T17:53:58.005Z,98432.69
2022-10-15T17:56:31.809Z,98436.16
2022-10-15T17:59:01.529Z,98433.09
2022-10-15T18:01:39.289Z,98426.16
2022-10-15T18:04:22.453Z,98431.84
2022-10-15T18:06:50.419Z,98430.63
2022-10-15T18:09:17.856Z,98437.16
2022-10-15T18:11:46.975Z,98433.50
2022-10-15T18:14:13.844Z,98438.41
2022-10-15T18:16:41.591Z,98438.84
2022-10-15T18:19:11.573Z,98443.94
2022-10-15T18:21:44.349Z,98442.91
2022-10-15T18:24:14.025Z,98441.22
2022-10-15T18:26:41.369Z,98443.28
2022-10-15T18:29:10.161Z,98443.84
2022-10-15T18:31:37.632Z,98442.44
2022-10-15T18:34:05.118Z,98456.91
2022-10-15T18:36:33.440Z,98459.13
2022-10-15T18:39:00.911Z,98451.81
2022-10-15T18:41:33.320Z,98454.25
2022-10-15T18:44:05.900Z,98450.63
2022-10-15T18:46:36.573Z,98454.34
2022-10-15T18:49:03.852Z,98466.38
2022-10-15T18:51:32.111Z,98467.84
2022-10-15T18:54:01.002Z,98476.97
2022-10-15T18:56:29.116Z,98467.97
2022-10-15T18:58:56.587Z,98477.91
2022-10-15T19:01:36.132Z,98471.94
2022-10-15T19:04:06.733Z,98472.94
2022-10-15T19:06:36.908Z,98478.22
2022-10-15T19:09:06.422Z,98476.00
2022-10-15T19:11:37.460Z,98479.53
2022-10-15T19:14:07.785Z,98479.91
2022-10-15T19:16:38.492Z,98473.34
2022-10-15T19:19:06.714Z,98473.97
2022-10-15T19:21:37.745Z,98491.50
2022-10-15T19:24:05.959Z,98501.09
2022-10-15T19:26:34.921Z,98499.25
2022-10-15T19:29:03.573Z,98491.28
2022-10-15T19:31:37.114Z,98494.34
2022-10-15T19:34:05.313Z,98506.25
2022-10-15T19:36:41.705Z,98495.59
2022-10-15T19:39:12.278Z,98502.53
2022-10-15T19:41:40.754Z,98506.81
2022-10-15T19:44:09.521Z,98511.75
2022-10-15T19:46:38.640Z,98508.53
2022-10-15T19:49:07.282Z,98518.28
2022-10-15T19:51:38.788Z,98506.44
2022-10-15T19:54:06.684Z,98510.09
2022-10-15T19:56:34.898Z,98509.25
2022-10-15T19:59:04.153Z,98510.50
2022-10-15T20:01:32.326Z,98504.72
2022-10-15T20:04:06.288Z,98503.81
2022-10-15T20:06:36.725Z,98511.53
2022-10-15T20:09:04.361Z,98510.03
2022-10-15T20:11:31.868Z,98521.06
2022-10-15T20:14:02.067Z,98516.91
2022-10-15T20:16:33.390Z,98518.53
2022-10-15T20:19:05.341Z,98516.41
2022-10-15T20:21:36.175Z,98511.78
2022-10-15T20:24:04.946Z,98511.72
2022-10-15T20:26:34.170Z,98516.41
2022-10-15T20:29:01.897Z,98517.09
2022-10-15T20:31:33.837Z,98513.56
2022-10-15T20:34:01.938Z,98527.66
2022-10-15T20:36:30.362Z,98527.03
2022-10-15T20:39:00.938Z,98531.69
2022-10-15T20:41:28.383Z,98536.38
2022-10-15T20:43:56.439Z,98542.25
2022-10-15T20:46:34.744Z,98547.31
2022-10-15T20:49:09.769Z,98554.69
2022-10-15T20:51:38.519Z,98566.13
2022-10-15T20:54:06.540Z,98565.66
2022-10-15T20:56:33.798Z,98563.25
2022-10-15T20:59:01.534Z,98572.75
2022-10-15T21:01:28.432Z,98583.75
2022-10-15T21:03:57.437Z,98602.06
2022-10-15T21:06:25.901Z,98608.16
2022-10-15T21:08:53.123Z,98609.06
2022-10-15T21:11:21.028Z,98614.94
2022-10-15T21:13:48.304Z,98595.59
2022-10-15T21:16:15.521Z,98602.16
2022-10-15T21:18:43.796Z,98598.25
2022-10-15T21:21:15.420Z,98599.69
2022-10-15T21:23:46.523Z,98595.66
2022-10-15T21:26:17.349Z,98584.22
2022-10-15T21:28:46.698Z,98584.84
2022-10-15T21:31:18.289Z,98591.56
2022-10-15T21:33:47.381Z,98592.38
2022-10-15T21:36:23.418Z,98594.22
2022-10-15T21:38:55.560Z,98602.94
2022-10-15T21:41:23.549Z,98613.72
2022-10-15T21:43:51.209Z,98616.63
2022-10-15T21:46:25.365Z,98613.38
2022-10-15T21:48:55.835Z,98610.31
2022-10-15T21:51:29.080Z,98623.53
2022-10-15T21:53:57.212Z,98617.97
2022-10-15T21:56:24.146Z,98607.56
2022-10-15T21:58:52.380Z,98615.31
2022-10-15T22:01:23.385Z,98607.66
2022-10-15T22:03:52.133Z,98616.31
2022-10-15T22:06:20.832Z,98614.69
2022-10-15T22:08:48.723Z,98623.28
2022-10-15T22:11:23.061Z,98632.63
2022-10-15T22:13:59.103Z,98642.59
2022-10-15T22:16:27.584Z,98645.69
2022-10-15T22:18:58.568Z,98648.28
2022-10-15T22:21:28.597Z,98648.91
2022-10-15T22:24:03.708Z,98646.56
2022-10-15T22:26:33.776Z,98653.69
2022-10-15T22:29:02.501Z,98648.38
2022-10-15T22:31:30.062Z,98650.41
2022-10-15T22:33:59.659Z,98653.56
2022-10-15T22:36:29.476Z,98656.03
2022-10-15T22:38:59.636Z,98662.97
2022-10-15T22:41:29.087Z,98656.41
2022-10-15T22:43:56.868Z,98663.06
2022-10-15T22:46:27.094Z,98666.56
2022-10-15T22:48:54.940Z,98663.28
2022-10-15T22:51:23.045Z,98671.88
2022-10-15T22:53:50.233Z,98665.94
2022-10-15T22:56:19.096Z,98658.97
2022-10-15T22:58:47.742Z,98660.38
2022-10-15T23:01:21.835Z,98655.34
2022-10-15T23:03:52.201Z,98660.03
2022-10-15T23:06:20.567Z,98653.97
2022-10-15T23:08:48.069Z,98657.63
2022-10-15T23:11:28.088Z,98663.28
2022-10-15T23:14:10.374Z,98664.31
2022-10-15T23:16:40.306Z,98666.56
2022-10-15T23:19:22.673Z,98674.28
2022-10-15T23:21:56.776Z,98675.00
2022-10-15T23:24:26.628Z,98678.75
2022-10-15T23:26:54.248Z,98676.28
2022-10-15T23:29:24.416Z,98677.38
2022-10-15T23:31:52.687Z,98677.19
2022-10-15T23:34:22.240Z,98661.88
2022-10-15T23:36:51.424Z,98659.84
2022-10-15T23:39:25.898Z,98649.63
2022-10-15T23:41:54.567Z,98640.22
2022-10-15T23:44:25.945Z,98649.44
2022-10-15T23:46:54.217Z,98645.06
2022-10-15T23:49:21.942Z,98651.56
2022-10-15T23:51:49.022Z,98651.75
2022-10-15T23:54:18.065Z,98648.53
2022-10-15T23:56:46.608Z,98652.72
2022-10-15T23:59:15.272Z,98665.16
